This is the latest recevied weather packets stored in our database for station/object DK8HC-WX. If no packets are shown the sender has not sent any weather packets the latest 10 day(s).
| Time | Temp. | Humidity | Pressure | Rain* | Wind** | Luminosity | Snow |
|---|---|---|---|---|---|---|---|
| 1777214472 | 19.44° C | 27% | 1027.2 hPa | - | - | - | - |
| 1777213873 | 21.67° C | 26% | 1027.5 hPa | - | - | - | - |
| 1777213272 | 22.22° C | 24% | 1027.6 hPa | - | - | - | - |
| 1777212672 | 25° C | 24% | 1027.8 hPa | - | - | - | - |
| 1777212072 | 22.22° C | 25% | 1027.6 hPa | - | - | - | - |
| 1777211474 | 21.11° C | 27% | 1027.6 hPa | - | - | - | - |
| 1777210872 | 25.56° C | 25% | 1028 hPa | - | - | - | - |
| 1777210273 | 22.78° C | 29% | 1028.2 hPa | - | - | - | - |
| 1777209672 | 22.78° C | 32% | 1028.4 hPa | - | - | - | - |
| 1777209072 | 19.44° C | 34% | 1027.6 hPa | - | - | - | - |
| 1777208472 | 21.11° C | 39% | 1028.3 hPa | - | - | - | - |
| 1777207872 | 17.22° C | 40% | 1027.8 hPa | - | - | - | - |
| 1777207272 | 16.67° C | 41% | 1027.6 hPa | - | - | - | - |
| 1777206672 | 17.78° C | 38% | 1027.7 hPa | - | - | - | - |
| 1777206072 | 20.56° C | 40% | 1028.4 hPa | - | - | - | - |
| 1777205472 | 20° C | 40% | 1028.4 hPa | - | - | - | - |
| 1777204873 | 18.89° C | 42% | 1028.5 hPa | - | - | - | - |
| 1777204272 | 18.89° C | 40% | 1028.2 hPa | - | - | - | - |
| 1777203672 | 21.67° C | 38% | 1028.5 hPa | - | - | - | - |
| 1777203072 | 21.67° C | 40% | 1028.6 hPa | - | - | - | - |
| 1777202472 | 21.11° C | 43% | 1028.7 hPa | - | - | - | - |
| 1777201871 | 20.56° C | 44% | 1028.6 hPa | - | - | - | - |
| 1777201271 | 20.56° C | 47% | 1028.8 hPa | - | - | - | - |
| 1777200671 | 18.33° C | 49% | 1028.8 hPa | - | - | - | - |
| 1777200071 | 18.89° C | 49% | 1028.9 hPa | - | - | - | - |
* Rain since midnight (hover to see other rain measurements)
** Current wind speed in m/s (hover to see current wind gust speed)